Time;durP1;ratioP1;P1;durP2;ratioP2;P2;SDS_P1;SDS_P2;PMS_P1;PMS_P2;Temp;Humidity;BMP_temperature;BMP_pressure;BME280_temperature;BME280_humidity;BME280_pressure;Samples;Min_cycle;Max_cycle;Signal;HPM_P1;HPM_P2
2022/04/05 00:01:29;;;;;;;5.85;4.57;;;;;;;18.60;44.66;100988.06;4897573;28;20084;-76
2022/04/05 00:03:56;;;;;;;5.50;4.60;;;;;;;18.60;44.69;100985.38;4897574;29;20060;-76
2022/04/05 00:06:24;;;;;;;7.05;4.80;;;;;;;18.60;44.69;100990.75;4896466;29;20060;-76
2022/04/05 00:08:51;;;;;;;7.28;4.90;;;;;;;18.61;44.64;100988.91;4897255;29;20057;-76
2022/04/05 00:11:18;;;;;;;5.47;4.68;;;;;;;18.59;44.62;100980.97;4897509;29;20044;-76
2022/04/05 00:13:46;;;;;;;5.72;4.15;;;;;;;18.59;44.63;100982.81;4897464;29;20063;-76
2022/04/05 00:16:13;;;;;;;6.75;4.63;;;;;;;18.59;44.48;100988.16;4897246;29;20060;-76
2022/04/05 00:18:41;;;;;;;5.13;3.90;;;;;;;18.58;44.43;100981.94;4897507;29;20400;-76
2022/04/05 00:21:08;;;;;;;4.68;4.00;;;;;;;18.58;44.55;100981.09;4897541;29;20085;-76
2022/04/05 00:23:35;;;;;;;4.93;4.00;;;;;;;18.58;44.43;100975.75;4897580;29;20049;-76
2022/04/05 00:26:03;;;;;;;6.05;4.00;;;;;;;18.58;44.49;100975.75;4880493;29;20052;-76
2022/04/05 00:28:30;;;;;;;5.10;4.60;;;;;;;18.57;44.42;100976.72;4895912;29;20480;-76
2022/04/05 00:30:58;;;;;;;5.93;4.05;;;;;;;18.56;44.33;100970.50;4880024;29;20063;-76
2022/04/05 00:33:26;;;;;;;4.95;4.40;;;;;;;18.56;44.40;100975.88;4897158;29;20064;-76
2022/04/05 00:35:53;;;;;;;4.75;4.18;;;;;;;18.55;44.46;100968.78;4897671;29;20389;-76
2022/04/05 00:38:20;;;;;;;4.90;4.38;;;;;;;18.55;44.34;100966.09;4897332;29;20357;-76
2022/04/05 00:40:47;;;;;;;6.35;4.40;;;;;;;18.54;44.23;100954.53;4896820;29;20049;-76
2022/04/05 00:43:15;;;;;;;4.00;3.50;;;;;;;18.55;44.30;100958.06;4896752;29;20052;-76
2022/04/05 00:45:42;;;;;;;6.07;4.75;;;;;;;18.54;44.24;100959.88;4896788;29;20049;-76
2022/04/05 00:48:11;;;;;;;4.75;4.18;;;;;;;18.54;44.43;100956.34;4897377;29;20048;-76
2022/04/05 00:50:39;;;;;;;4.05;3.63;;;;;;;18.54;44.14;100946.47;4879775;29;20053;-76
2022/04/05 00:53:08;;;;;;;4.65;3.70;;;;;;;18.54;44.23;100953.69;4896948;29;20382;-76
2022/04/05 00:55:36;;;;;;;4.43;3.60;;;;;;;18.53;44.33;100947.47;4896778;29;20056;-76
2022/04/05 00:58:03;;;;;;;5.68;4.40;;;;;;;18.52;44.36;100947.59;4896563;29;20048;-76
2022/04/05 01:00:32;;;;;;;4.80;3.80;;;;;;;18.52;44.21;100951.13;4896495;29;20079;-76
2022/04/05 01:03:00;;;;;;;4.97;3.60;;;;;;;18.52;44.15;100951.13;4879228;29;20382;-76
2022/04/05 01:05:28;;;;;;;6.13;4.40;;;;;;;18.52;44.27;100955.66;4896958;29;20060;-76
2022/04/05 01:07:59;;;;;;;5.00;3.97;;;;;;;18.52;44.21;100955.66;4896614;29;20044;-76
2022/04/05 01:10:29;;;;;;;5.22;4.10;;;;;;;18.51;44.15;100952.13;4897215;29;20064;-76
2022/04/05 01:12:56;;;;;;;5.57;4.00;;;;;;;18.50;43.88;100950.38;4896223;29;20064;-76
2022/04/05 01:15:24;;;;;;;4.30;3.88;;;;;;;18.51;43.95;100959.28;4880092;29;20057;-76
2022/04/05 01:17:53;;;;;;;4.63;3.90;;;;;;;18.51;44.18;100953.91;4896322;29;20507;-76
2022/04/05 01:20:20;;;;;;;15.05;4.63;;;;;;;18.49;44.06;100951.38;4896983;28;20056;-76
2022/04/05 01:22:49;;;;;;;5.53;4.30;;;;;;;18.50;44.04;100949.53;4896197;29;20516;-75
2022/04/05 01:25:18;;;;;;;4.47;3.88;;;;;;;18.49;44.25;100951.38;4896198;29;20052;-76
2022/04/05 01:27:47;;;;;;;4.28;3.85;;;;;;;18.47;44.15;100945.28;4896630;29;20396;-76
2022/04/05 01:30:14;;;;;;;5.40;4.15;;;;;;;18.48;43.98;100941.63;4896009;29;20052;-76
2022/04/05 01:32:43;;;;;;;6.25;4.50;;;;;;;18.49;44.04;100942.47;4879508;29;20068;-76
2022/04/05 01:35:10;;;;;;;4.75;4.10;;;;;;;18.47;43.98;100939.94;4896037;29;20083;-76
2022/04/05 01:37:38;;;;;;;5.93;4.85;;;;;;;18.46;44.17;100932.84;4896299;29;20040;-76
2022/04/05 01:40:05;;;;;;;6.68;3.78;;;;;;;18.47;44.10;100931.00;4896609;29;20044;-76
2022/04/05 01:42:37;;;;;;;4.50;3.97;;;;;;;18.47;44.10;100923.84;4896313;29;20048;-76
2022/04/05 01:45:06;;;;;;;5.22;3.90;;;;;;;18.47;44.07;100928.34;4896787;29;20052;-76
2022/04/05 01:47:33;;;;;;;5.22;4.05;;;;;;;18.46;44.14;100918.59;4896347;29;20045;-76
2022/04/05 01:50:01;;;;;;;4.68;4.10;;;;;;;18.46;43.90;100921.28;4895868;29;20048;-76
2022/04/05 01:52:28;;;;;;;4.43;3.80;;;;;;;18.46;44.19;100918.59;4895991;29;20056;-76
2022/04/05 01:54:55;;;;;;;6.05;4.43;;;;;;;18.45;44.00;100914.22;4895844;29;20056;-76
2022/04/05 01:57:23;;;;;;;5.35;4.20;;;;;;;18.45;44.02;100914.22;4895670;29;20404;-76
2022/04/05 01:59:50;;;;;;;5.20;4.70;;;;;;;18.44;43.83;100908.00;4895965;28;20071;-76
2022/04/05 02:02:18;;;;;;;4.90;3.75;;;;;;;18.43;44.02;100906.31;4894726;29;20060;-77
2022/04/05 02:04:47;;;;;;;5.10;4.60;;;;;;;18.44;43.93;100913.38;4896238;29;20041;-76
2022/04/05 02:07:17;;;;;;;4.35;3.65;;;;;;;18.44;43.97;100907.16;4879874;29;20046;-76
2022/04/05 02:09:49;;;;;;;5.03;4.47;;;;;;;18.43;43.95;100902.75;4894167;29;20063;-76
2022/04/05 02:12:18;;;;;;;5.38;4.28;;;;;;;18.42;44.03;100899.22;4879143;29;20412;-76
2022/04/05 02:14:48;;;;;;;4.97;4.07;;;;;;;18.44;43.96;100907.16;4897506;29;20052;-76
2022/04/05 02:17:22;;;;;;;4.97;4.47;;;;;;;18.43;43.95;100902.75;4899499;29;20483;-76
2022/04/05 02:19:54;;;;;;;4.60;4.18;;;;;;;18.41;43.97;100894.00;4898875;29;20113;-76
2022/04/05 02:22:23;;;;;;;5.72;4.00;;;;;;;18.42;44.03;100898.38;4898125;29;20057;-76
2022/04/05 02:24:53;;;;;;;5.10;4.20;;;;;;;18.42;43.88;100893.00;4899361;28;20056;-76
2022/04/05 02:27:29;;;;;;;5.63;4.35;;;;;;;18.41;43.92;100889.47;4897577;29;20523;-76
2022/04/05 02:29:57;;;;;;;7.65;4.35;;;;;;;18.40;44.07;100890.47;4882138;29;20057;-76
2022/04/05 02:32:25;;;;;;;4.75;3.75;;;;;;;18.40;43.92;100881.59;4898975;29;20055;-76
2022/04/05 02:34:52;;;;;;;5.05;4.10;;;;;;;18.40;43.97;100886.94;4899398;29;20049;-76
2022/04/05 02:37:21;;;;;;;4.78;4.18;;;;;;;18.39;43.98;100880.72;4898167;29;20064;-76
2022/04/05 02:39:53;;;;;;;4.03;3.50;;;;;;;18.39;43.83;100885.22;4899100;28;20408;-76
2022/04/05 02:42:21;;;;;;;5.15;4.32;;;;;;;18.38;43.81;100888.88;4897328;29;20056;-76
2022/04/05 02:44:49;;;;;;;5.30;3.70;;;;;;;18.38;43.71;100886.19;4881667;29;20512;-76
2022/04/05 02:47:17;;;;;;;4.15;3.70;;;;;;;18.38;43.94;100880.84;4881633;29;20075;-76
2022/04/05 02:49:49;;;;;;;4.43;3.90;;;;;;;18.37;43.84;100890.72;4897221;29;20082;-76
2022/04/05 02:52:21;;;;;;;4.43;3.90;;;;;;;18.37;43.99;100880.00;4882081;29;20069;-76
2022/04/05 02:54:56;;;;;;;4.68;3.97;;;;;;;18.37;43.73;100879.13;4897464;29;20052;-76
2022/04/05 02:57:25;;;;;;;6.03;4.03;;;;;;;18.37;43.71;100876.47;4898539;28;20516;-76
2022/04/05 02:59:56;;;;;;;4.22;3.80;;;;;;;18.37;43.82;100876.47;4866795;29;20416;-76
2022/04/05 03:02:24;;;;;;;5.38;3.88;;;;;;;18.36;43.77;100877.44;4881690;29;20057;-76
2022/04/05 03:04:54;;;;;;;5.32;4.03;;;;;;;18.35;43.70;100876.59;4897194;29;20057;-76
2022/04/05 03:07:22;;;;;;;4.32;3.92;;;;;;;18.36;43.75;100869.41;4898662;28;20064;-76
2022/04/05 03:09:50;;;;;;;5.93;4.28;;;;;;;18.36;43.76;100872.94;4882114;29;20079;-76
2022/04/05 03:12:19;;;;;;;6.00;4.20;;;;;;;18.36;43.66;100872.09;4898639;29;20361;-76
2022/04/05 03:14:50;;;;;;;5.80;4.43;;;;;;;18.35;43.75;100870.34;4898904;29;20045;-76
2022/04/05 03:17:20;;;;;;;4.35;3.88;;;;;;;18.34;43.79;100866.81;4898512;28;20052;-76
2022/04/05 03:19:48;;;;;;;4.30;3.85;;;;;;;18.35;43.67;100870.34;4881319;29;20057;-76
2022/04/05 03:22:17;;;;;;;6.25;3.85;;;;;;;18.34;43.58;100863.31;4896565;29;20100;-76
2022/04/05 03:24:44;;;;;;;4.20;3.75;;;;;;;18.34;43.69;100866.81;4898042;29;20053;-76
2022/04/05 03:27:12;;;;;;;4.72;3.80;;;;;;;18.34;43.60;100868.66;4880675;29;20060;-76
2022/04/05 03:29:40;;;;;;;4.22;3.83;;;;;;;18.33;43.70;100869.66;4897035;29;20052;-76
2022/04/05 03:32:08;;;;;;;4.90;4.05;;;;;;;18.33;43.75;100861.59;4881555;29;20064;-76
2022/04/05 03:34:37;;;;;;;4.72;3.97;;;;;;;18.33;43.32;100862.44;4896805;29;20052;-76
2022/04/05 03:37:05;;;;;;;4.82;3.33;;;;;;;18.33;43.77;100858.94;4898528;29;20040;-76
2022/04/05 03:39:33;;;;;;;5.28;3.92;;;;;;;18.32;43.71;100854.56;4880855;29;20056;-76
2022/04/05 03:42:00;;;;;;;4.05;3.38;;;;;;;18.32;43.89;100866.13;4880821;29;20056;-76
2022/04/05 03:44:28;;;;;;;4.85;4.18;;;;;;;18.32;43.71;100865.28;4880871;29;20071;-76
2022/04/05 03:46:57;;;;;;;5.47;3.72;;;;;;;18.32;43.70;100859.91;4881024;29;20052;-76
2022/04/05 03:49:28;;;;;;;5.35;3.83;;;;;;;18.32;43.85;100854.56;4897497;28;20060;-76
2022/04/05 03:51:55;;;;;;;4.53;3.75;;;;;;;18.31;43.78;100856.38;4881157;29;20048;-76
2022/04/05 03:54:23;;;;;;;4.25;3.58;;;;;;;18.32;43.71;100859.91;4897382;28;20496;-76
2022/04/05 03:56:54;;;;;;;5.20;3.80;;;;;;;18.31;43.63;100859.06;4897237;29;20067;-76
2022/04/05 03:59:22;;;;;;;5.28;4.28;;;;;;;18.32;43.59;100854.56;4880842;29;20067;-76
2022/04/05 04:01:51;;;;;;;5.85;3.60;;;;;;;18.32;43.68;100854.56;4897518;28;20076;-76
2022/04/05 04:04:19;;;;;;;4.60;3.88;;;;;;;18.32;43.63;100857.22;4880269;29;20534;-76
2022/04/05 04:06:47;;;;;;;4.85;3.75;;;;;;;18.30;43.75;100846.63;4897667;28;20064;-76
2022/04/05 04:09:15;;;;;;;4.88;4.00;;;;;;;18.31;43.64;100847.47;4897102;29;20055;-76
2022/04/05 04:11:44;;;;;;;5.57;3.80;;;;;;;18.29;43.61;100843.09;4897282;29;20403;-76
2022/04/05 04:14:14;;;;;;;4.10;3.67;;;;;;;18.31;43.63;100847.47;4880630;29;20056;-76
2022/04/05 04:16:42;;;;;;;5.50;3.85;;;;;;;18.31;43.62;100842.09;4880866;29;20071;-76
2022/04/05 04:19:09;;;;;;;4.95;3.70;;;;;;;18.30;43.69;100846.63;4881472;29;20060;-76
2022/04/05 04:21:37;;;;;;;6.45;3.47;;;;;;;18.30;43.77;100849.28;4897394;28;20404;-76
2022/04/05 04:24:05;;;;;;;4.80;3.70;;;;;;;18.29;43.64;100844.91;4897285;28;20056;-76
2022/04/05 04:26:33;;;;;;;6.00;4.22;;;;;;;18.29;43.81;100845.78;4879802;29;20056;-76
2022/04/05 04:29:04;;;;;;;6.88;3.80;;;;;;;18.28;43.49;100844.06;4897587;29;20061;-75
2022/04/05 04:31:34;;;;;;;4.32;3.83;;;;;;;18.29;43.73;100850.28;4881291;29;20053;-76
2022/04/05 04:34:02;;;;;;;6.85;3.45;;;;;;;18.28;43.62;100852.13;4896914;29;20048;-75
2022/04/05 04:36:29;;;;;;;4.68;3.90;;;;;;;18.28;43.71;100851.25;4880714;29;20049;-76
2022/04/05 04:38:57;;;;;;;4.82;3.53;;;;;;;18.28;43.71;100851.25;4896169;29;20056;-76
2022/04/05 04:41:24;;;;;;;4.75;3.85;;;;;;;18.27;43.57;100852.22;4896746;29;20048;-76
2022/04/05 04:43:52;;;;;;;5.28;4.45;;;;;;;18.27;43.49;100847.72;4880863;29;20084;-76
2022/04/05 04:46:19;;;;;;;6.32;3.67;;;;;;;18.27;43.59;100846.84;4897395;29;20051;-76
2022/04/05 04:48:47;;;;;;;5.78;3.50;;;;;;;18.27;43.58;100847.72;4896736;29;20052;-76
2022/04/05 04:51:14;;;;;;;6.90;4.20;;;;;;;18.27;43.51;100857.56;4896540;29;20408;-76
2022/04/05 04:53:42;;;;;;;4.95;3.78;;;;;;;18.26;43.60;100851.38;4896645;29;20063;-76
2022/04/05 04:56:09;;;;;;;6.30;3.72;;;;;;;18.25;43.54;100849.66;4896605;29;20051;-76
2022/04/05 04:58:37;;;;;;;5.18;3.13;;;;;;;18.25;43.35;100851.50;4896805;29;20527;-76
2022/04/05 05:01:05;;;;;;;4.50;3.80;;;;;;;18.25;43.45;100855.03;4897077;29;20052;-76
2022/04/05 05:03:33;;;;;;;3.53;3.20;;;;;;;18.25;43.40;100857.72;4897244;29;20048;-76
2022/04/05 05:06:00;;;;;;;3.78;3.38;;;;;;;18.25;43.55;100859.53;4896458;29;20485;-76
2022/04/05 05:08:28;;;;;;;4.88;4.15;;;;;;;18.24;43.46;100864.06;4879444;29;20052;-76
2022/04/05 05:10:55;;;;;;;5.22;4.13;;;;;;;18.25;43.39;100867.59;4896930;29;20048;-76
2022/04/05 05:13:22;;;;;;;5.03;3.83;;;;;;;18.25;43.63;100864.91;4896078;29;20071;-76
2022/04/05 05:15:50;;;;;;;4.95;3.58;;;;;;;18.24;43.51;100861.38;4896307;29;20055;-75
2022/04/05 05:18:18;;;;;;;4.82;3.70;;;;;;;18.23;43.37;100857.00;4896718;29;20377;-75
2022/04/05 05:20:45;;;;;;;5.63;4.03;;;;;;;18.24;43.48;100857.84;4879574;29;20048;-76
2022/04/05 05:23:13;;;;;;;4.43;3.60;;;;;;;18.24;43.32;100857.84;4896737;29;20500;-76
2022/04/05 05:25:40;;;;;;;15.13;4.20;;;;;;;18.22;43.43;100860.63;4896353;29;20412;-76
2022/04/05 05:28:08;;;;;;;4.18;3.78;;;;;;;18.23;43.44;100862.34;4895140;29;20056;-76
2022/04/05 05:30:35;;;;;;;6.45;3.25;;;;;;;18.21;43.37;100861.63;4896027;29;20052;-76
2022/04/05 05:33:03;;;;;;;6.65;4.03;;;;;;;18.22;43.42;100855.28;4896094;29;20055;-76
2022/04/05 05:35:30;;;;;;;4.43;3.60;;;;;;;18.22;43.27;100859.78;4895930;29;20057;-76
2022/04/05 05:37:57;;;;;;;5.40;3.58;;;;;;;18.22;43.28;100859.78;4896531;29;20053;-76
2022/04/05 05:40:25;;;;;;;4.60;4.05;;;;;;;18.22;43.31;100866.00;4896413;29;20388;-76
2022/04/05 05:42:57;;;;;;;4.13;3.72;;;;;;;18.21;43.37;100860.78;4896387;29;20051;-76
2022/04/05 05:45:29;;;;;;;4.25;3.47;;;;;;;18.22;43.31;100865.16;4896377;28;20053;-76
2022/04/05 05:47:57;;;;;;;4.70;3.33;;;;;;;18.21;43.19;100869.66;4896232;29;20049;-76
2022/04/05 05:50:25;;;;;;;3.83;3.45;;;;;;;18.21;43.56;100866.13;4895446;29;20048;-76
2022/04/05 05:52:53;;;;;;;3.55;3.05;;;;;;;18.20;43.39;100862.59;4895735;29;20059;-76
2022/04/05 05:55:22;;;;;;;5.68;3.78;;;;;;;18.21;43.34;100874.16;4896043;29;20488;-76
2022/04/05 05:57:49;;;;;;;4.68;3.60;;;;;;;18.21;43.24;100874.16;4895733;29;20053;-75
2022/04/05 06:00:21;;;;;;;3.88;3.42;;;;;;;18.20;43.29;100872.47;4895741;29;20067;-76
2022/04/05 06:02:56;;;;;;;4.70;4.15;;;;;;;18.21;43.36;100874.16;4896568;29;20048;-76
2022/04/05 06:05:25;;;;;;;5.25;4.07;;;;;;;18.19;43.26;100871.63;4880535;28;20179;-76
2022/04/05 06:07:53;;;;;;;5.53;3.53;;;;;;;18.20;43.28;100872.47;4879755;29;20052;-76
2022/04/05 06:10:21;;;;;;;5.05;3.75;;;;;;;18.19;43.19;100876.97;4895556;29;20408;-76
2022/04/05 06:12:50;;;;;;;5.13;3.40;;;;;;;18.19;43.29;100881.47;4896143;29;20392;-76
2022/04/05 06:15:19;;;;;;;5.88;3.42;;;;;;;18.19;43.43;100882.34;4896136;29;20053;-77
2022/04/05 06:17:49;;;;;;;4.97;3.42;;;;;;;18.20;43.14;100878.69;4896099;29;20052;-76
2022/04/05 06:20:18;;;;;;;4.35;3.42;;;;;;;18.21;43.21;100890.25;4895688;29;20045;-76
2022/04/05 06:22:57;;;;;;;4.90;3.60;;;;;;;18.20;43.18;100878.69;4895595;29;20052;-76
2022/04/05 06:25:29;;;;;;;6.75;3.75;;;;;;;18.21;43.21;100885.72;4896228;29;20049;-76
2022/04/05 06:27:57;;;;;;;4.22;3.70;;;;;;;18.21;43.25;100884.88;4895673;29;20504;-76
2022/04/05 06:30:25;;;;;;;4.07;3.67;;;;;;;18.21;43.38;100885.72;4895824;28;20060;-76
2022/04/05 06:33:18;;;;;;;5.40;3.60;;;;;;;18.21;43.26;100891.09;4879069;29;20052;-76
2022/04/05 06:35:49;;;;;;;5.63;3.40;;;;;;;18.23;43.37;100885.59;4896589;29;20365;-76
2022/04/05 06:38:18;;;;;;;8.20;3.97;;;;;;;18.22;43.28;100881.22;4896269;29;20055;-76
2022/04/05 06:40:46;;;;;;;5.07;3.30;;;;;;;18.24;43.38;100892.69;4896178;29;20040;-76
2022/04/05 06:43:15;;;;;;;4.70;3.45;;;;;;;18.25;43.29;100889.88;4895637;29;20116;-76
2022/04/05 06:45:43;;;;;;;5.65;3.75;;;;;;;18.26;43.35;100883.53;4896123;29;20045;-76
2022/04/05 06:48:11;;;;;;;4.22;3.05;;;;;;;18.26;42.87;100896.94;4895132;29;20052;-76
2022/04/05 06:50:39;;;;;;;4.18;3.75;;;;;;;18.26;42.69;100894.25;4895404;29;20052;-76
2022/04/05 06:53:08;;;;;;;4.32;3.90;;;;;;;18.27;42.58;100893.28;4895700;29;20404;-76
2022/04/05 06:55:37;;;;;;;4.90;3.83;;;;;;;18.28;42.54;100884.28;4895783;29;20068;-76
2022/04/05 06:58:05;;;;;;;5.30;4.07;;;;;;;18.30;42.43;100886.81;4894030;29;20060;-76
2022/04/05 07:00:35;;;;;;;5.63;3.92;;;;;;;18.31;42.41;100887.66;4895004;29;20045;-76
2022/04/05 07:03:04;;;;;;;6.25;3.97;;;;;;;18.31;42.31;100888.53;4898024;29;20075;-76
2022/04/05 07:05:32;;;;;;;5.53;3.85;;;;;;;18.32;42.34;100884.03;4898400;29;20044;-76
2022/04/05 07:07:59;;;;;;;4.30;3.30;;;;;;;18.33;42.47;100885.72;4898060;29;20507;-77
2022/04/05 07:10:26;;;;;;;5.10;4.03;;;;;;;18.35;42.43;100881.97;4898720;29;20048;-76
2022/04/05 07:12:54;;;;;;;5.20;3.90;;;;;;;18.36;42.54;100882.81;4897134;29;20055;-76
2022/04/05 07:15:21;;;;;;;5.60;3.78;;;;;;;18.37;42.39;100879.13;4898916;29;20053;-76
2022/04/05 07:17:49;;;;;;;5.25;4.00;;;;;;;18.36;42.35;100877.44;4897916;29;20067;-76
2022/04/05 07:20:34;;;;;;;5.20;3.88;;;;;;;18.38;42.36;100878.16;4898725;29;20049;-76
2022/04/05 07:23:02;;;;;;;4.95;3.95;;;;;;;18.40;42.90;100873.53;4898172;29;20049;-78
2022/04/05 07:25:31;;;;;;;5.75;3.67;;;;;;;18.40;43.01;100878.91;4896686;29;20052;-76
2022/04/05 07:27:58;;;;;;;7.60;3.55;;;;;;;18.43;43.16;100874.16;4897675;29;20049;-76
2022/04/05 07:30:25;;;;;;;6.35;3.47;;;;;;;18.45;43.23;100868.66;4897863;29;20052;-76
2022/04/05 07:32:53;;;;;;;7.68;3.00;;;;;;;18.46;43.55;100870.34;4881725;29;20056;-76
2022/04/05 07:35:21;;;;;;;6.85;3.30;;;;;;;18.46;43.26;100868.50;4898504;29;20472;-76
2022/04/05 07:37:49;;;;;;;5.78;3.55;;;;;;;18.48;43.13;100860.38;4898727;29;20477;-76
2022/04/05 07:40:17;;;;;;;4.47;3.47;;;;;;;18.49;43.40;100867.41;4898378;29;20055;-76
2022/04/05 07:42:45;;;;;;;5.50;3.67;;;;;;;18.49;43.23;100872.78;4866311;29;20485;-77
2022/04/05 07:45:15;;;;;;;5.30;3.13;;;;;;;18.51;43.33;100865.44;4898070;29;20048;-76
2022/04/05 07:47:44;;;;;;;5.80;3.20;;;;;;;18.51;43.33;100865.44;4881280;29;20048;-76
2022/04/05 07:50:11;;;;;;;4.00;2.85;;;;;;;18.54;43.41;100870.56;4897799;29;20117;-76
2022/04/05 07:52:39;;;;;;;4.60;3.17;;;;;;;18.53;43.33;100867.03;4897534;29;20052;-77
2022/04/05 07:55:08;;;;;;;5.50;3.20;;;;;;;18.54;43.55;100874.09;4897483;29;20092;-76
2022/04/05 07:57:36;;;;;;;4.00;2.67;;;;;;;18.57;43.42;100874.84;4897952;29;20060;-76
2022/04/05 08:00:05;;;;;;;4.82;2.80;;;;;;;18.57;43.35;100870.31;4897684;29;20369;-76
2022/04/05 08:02:39;;;;;;;5.25;2.90;;;;;;;18.58;43.39;100872.03;4904652;29;20052;-77
2022/04/05 08:05:14;;;;;;;4.28;2.90;;;;;;;18.59;43.68;100872.88;4897663;29;20060;-76
2022/04/05 08:07:43;;;;;;;4.22;2.85;;;;;;;18.60;43.19;100864.72;4897855;29;20052;-77
2022/04/05 08:10:10;;;;;;;4.50;2.65;;;;;;;18.60;43.38;100864.72;4896177;29;20052;-77
2022/04/05 08:12:44;;;;;;;5.10;3.10;;;;;;;18.62;43.30;100867.25;4880698;29;20395;-77
2022/04/05 08:15:17;;;;;;;4.93;2.97;;;;;;;18.63;43.22;100867.13;4897645;29;20063;-76
2022/04/05 08:17:45;;;;;;;;;;;;;;;18.63;43.36;100867.13;4897768;29;20049;-76
2022/04/05 08:20:13;;;;;;;5.40;3.10;;;;;;;18.64;43.20;100870.69;4897089;29;19924;-76
2022/04/05 08:22:42;;;;;;;5.07;3.58;;;;;;;18.64;43.14;100866.16;4896906;29;20075;-76
2022/04/05 08:25:14;;;;;;;4.70;3.00;;;;;;;18.64;43.26;100863.50;4897030;29;20052;-76
2022/04/05 08:27:42;;;;;;;3.33;3.00;;;;;;;18.65;43.19;100867.88;4897371;29;20504;-76
2022/04/05 08:30:15;;;;;;;5.70;3.38;;;;;;;18.67;43.10;100867.72;4897172;28;20374;-76
2022/04/05 08:32:44;;;;;;;5.53;3.08;;;;;;;18.68;43.06;100866.78;4897199;29;20061;-79
2022/04/05 08:35:14;;;;;;;4.75;3.30;;;;;;;18.68;42.89;100867.63;4897088;29;20064;-78
2022/04/05 08:37:42;;;;;;;5.03;3.53;;;;;;;18.69;42.73;100868.47;4896918;29;20404;-77
2022/04/05 08:40:15;;;;;;;8.25;3.72;;;;;;;18.70;42.13;100871.03;4896686;29;20045;-76
2022/04/05 08:42:47;;;;;;;8.43;6.15;;;;;;;18.68;39.88;100870.31;4897305;29;20052;-76
2022/04/05 08:45:16;;;;;;;9.15;5.82;;;;;;;18.67;39.19;100870.41;4896610;29;20496;-76
2022/04/05 08:47:49;;;;;;;10.88;7.20;;;;;;;18.66;38.98;100871.38;4896691;29;20052;-76
2022/04/05 08:50:31;;;;;;;11.45;7.75;;;;;;;18.64;38.57;100866.16;4896613;29;20072;-76
2022/04/05 08:53:00;;;;;;;11.60;5.80;;;;;;;18.65;39.11;100861.66;4896739;29;20530;-76
2022/04/05 08:55:35;;;;;;;10.85;6.55;;;;;;;18.65;39.12;100865.19;4897124;29;20059;-77
2022/04/05 08:58:04;;;;;;;10.13;5.82;;;;;;;18.65;38.79;100858.97;4896578;29;20053;-76
2022/04/05 09:00:32;;;;;;;10.00;6.55;;;;;;;18.65;39.21;100859.81;4879219;29;20059;-76
2022/04/05 09:03:02;;;;;;;10.80;6.35;;;;;;;18.65;39.07;100859.81;4896654;29;20053;-77
2022/04/05 09:05:36;;;;;;;10.73;7.07;;;;;;;18.66;38.48;100861.50;4896647;29;20496;-76
2022/04/05 09:08:25;;;;;;;10.90;6.50;;;;;;;18.65;38.60;100854.47;4896597;29;20497;-77
2022/04/05 09:11:08;;;;;;;8.93;5.78;;;;;;;18.67;39.39;100855.16;4896364;29;20401;-76
2022/04/05 09:13:36;;;;;;;8.38;4.85;;;;;;;18.68;40.22;100843.47;4895079;29;20057;-77
2022/04/05 09:16:08;;;;;;;11.05;6.05;;;;;;;18.67;39.56;100859.69;4879165;29;20061;-76
2022/04/05 09:18:38;;;;;;;9.77;5.20;;;;;;;18.69;40.20;100855.91;4896156;29;20060;-76
2022/04/05 09:21:08;;;;;;;10.73;6.05;;;;;;;18.70;40.49;100854.09;4896160;29;20049;-76
2022/04/05 09:23:41;;;;;;;7.88;4.95;;;;;;;18.70;40.59;100857.63;4896103;29;20519;-77
2022/04/05 09:26:14;;;;;;;7.55;4.72;;;;;;;18.70;40.29;100852.28;4896267;29;20404;-76
2022/04/05 09:28:43;;;;;;;6.20;5.00;;;;;;;18.71;40.34;100848.59;4895983;29;20049;-76
2022/04/05 09:31:20;;;;;;;9.93;5.95;;;;;;;18.68;37.74;100846.16;4896362;29;20056;-76
2022/04/05 09:34:04;;;;;;;10.73;6.13;;;;;;;18.68;38.16;100845.31;4896236;29;20615;-76
2022/04/05 09:36:53;;;;;;;9.38;6.40;;;;;;;18.67;38.19;100839.06;4895165;29;20076;-76
2022/04/05 09:39:22;;;;;;;9.10;6.10;;;;;;;18.69;38.06;100833.59;4896038;29;20424;-76
2022/04/05 09:42:00;;;;;;;11.07;6.95;;;;;;;18.69;37.59;100830.94;4895769;29;20052;-76
2022/04/05 09:44:34;;;;;;;8.68;5.45;;;;;;;18.69;39.27;100837.13;4895931;29;20053;-76
2022/04/05 09:47:17;;;;;;;8.32;5.25;;;;;;;18.70;39.08;100833.50;4895850;29;20056;-76
2022/04/05 09:49:48;;;;;;;8.05;4.82;;;;;;;18.71;38.97;100834.34;4894591;29;20067;-77
2022/04/05 09:52:30;;;;;;;8.60;5.22;;;;;;;18.72;38.62;100828.03;4895873;29;20040;-76
2022/04/05 09:55:18;;;;;;;9.18;5.55;;;;;;;18.73;38.83;100838.63;4895004;29;20063;-76
2022/04/05 09:57:46;;;;;;;7.95;5.13;;;;;;;18.74;39.12;100831.41;4878811;29;20049;-76
2022/04/05 10:00:19;;;;;;;9.00;5.95;;;;;;;18.72;37.31;100825.34;4895703;29;20052;-77
2022/04/05 10:03:01;;;;;;;6.63;5.05;;;;;;;18.74;38.52;100828.72;4895619;29;20078;-76
2022/04/05 10:05:33;;;;;;;10.35;5.75;;;;;;;18.74;38.80;100818.00;4894990;29;20049;-76
2022/04/05 10:08:05;;;;;;;9.15;5.30;;;;;;;18.74;38.64;100821.53;4894683;29;20045;-77
2022/04/05 10:10:33;;;;;;;7.82;5.10;;;;;;;18.75;38.28;100815.19;4895488;29;20076;-76
2022/04/05 10:13:00;;;;;;;8.70;5.32;;;;;;;18.76;38.92;100816.91;4895886;29;20052;-77
2022/04/05 10:15:29;;;;;;;9.25;5.13;;;;;;;18.77;39.16;100821.28;4895763;29;20057;-77
2022/04/05 10:17:57;;;;;;;7.22;5.55;;;;;;;18.79;39.15;100818.47;4896019;29;20055;-77
2022/04/05 10:20:27;;;;;;;6.68;5.05;;;;;;;18.79;39.11;100813.09;4894653;29;20420;-76
2022/04/05 10:22:58;;;;;;;7.57;5.70;;;;;;;18.80;39.45;100804.09;4895522;29;20045;-77
2022/04/05 10:25:26;;;;;;;9.75;5.60;;;;;;;18.81;39.56;100804.94;4895375;29;20049;-78
2022/04/05 10:27:54;;;;;;;9.13;5.78;;;;;;;18.82;39.81;100803.97;4895249;29;20045;-77
2022/04/05 10:30:27;;;;;;;7.00;5.20;;;;;;;18.81;39.83;100804.94;4878955;29;20053;-78
2022/04/05 10:32:54;;;;;;;;;;;;;;;18.82;40.00;100795.91;4896545;29;20045;-78
2022/04/05 10:35:24;;;;;;;9.25;5.25;;;;;;;18.82;40.16;100795.91;4896122;29;19931;-78
2022/04/05 10:38:10;;;;;;;10.20;5.63;;;;;;;18.81;40.28;100792.38;4897246;29;20053;-78
2022/04/05 10:40:37;;;;;;;10.38;5.85;;;;;;;18.82;40.34;100788.72;4898489;29;20048;-78
2022/04/05 10:43:17;;;;;;;12.25;6.65;;;;;;;18.82;40.86;100791.41;4898762;29;20056;-78
2022/04/05 10:45:46;;;;;;;10.00;6.60;;;;;;;18.83;40.83;100794.91;4899125;29;20048;-78
2022/04/05 10:48:15;;;;;;;13.02;6.45;;;;;;;18.82;41.17;100788.72;4898989;29;20056;-77
2022/04/05 10:51:01;;;;;;;9.63;6.57;;;;;;;18.83;41.40;100782.34;4899777;28;20412;-77
2022/04/05 10:53:37;;;;;;;10.43;6.30;;;;;;;18.83;41.36;100785.03;4898956;29;20048;-78
2022/04/05 10:56:06;;;;;;;6.82;5.45;;;;;;;18.82;41.33;100782.50;4898047;29;20508;-78
2022/04/05 10:59:01;;;;;;;7.95;5.30;;;;;;;18.82;41.40;100780.66;4897322;29;20401;-77
2022/04/05 11:01:44;;;;;;;9.38;6.50;;;;;;;18.81;41.54;100770.09;4918224;29;20180;-77
2022/04/05 11:04:16;;;;;;;9.90;5.72;;;;;;;18.82;41.46;100771.78;4901796;29;20060;-77
2022/04/05 11:06:58;;;;;;;8.88;5.72;;;;;;;18.80;41.45;100761.19;4918520;29;20075;-78
2022/04/05 11:09:27;;;;;;;7.47;5.17;;;;;;;18.80;41.30;100771.03;4918019;29;20444;-78
2022/04/05 11:11:55;;;;;;;10.10;6.00;;;;;;;18.79;41.02;100762.13;4918239;29;20100;-78
2022/04/05 11:14:42;;;;;;;6.90;5.35;;;;;;;18.80;41.13;100761.19;4917634;29;20069;-78
2022/04/05 11:17:12;;;;;;;8.35;5.20;;;;;;;18.79;40.93;100756.78;4917944;29;20063;-78
2022/04/05 11:19:44;;;;;;;8.20;5.53;;;;;;;18.78;40.45;100761.28;4917887;29;20087;-77
2022/04/05 11:22:20;;;;;;;10.50;6.00;;;;;;;18.78;40.59;100763.97;4917856;29;20068;-79
2022/04/05 11:24:53;;;;;;;9.63;5.32;;;;;;;18.79;40.88;100746.06;4917510;29;20055;-78
2022/04/05 11:27:24;;;;;;;7.38;4.88;;;;;;;18.78;41.00;100747.03;4918466;29;20060;-78
2022/04/05 11:30:23;;;;;;;9.68;5.65;;;;;;;18.80;41.03;100749.56;4932633;29;20059;-79
2022/04/05 11:33:14;;;;;;;7.68;5.35;;;;;;;18.78;41.10;100739.84;4917838;29;20059;-78
2022/04/05 11:35:47;;;;;;;8.77;5.18;;;;;;;18.78;41.09;100739.00;4918142;29;20048;-78
2022/04/05 11:38:18;;;;;;;6.93;5.03;;;;;;;18.77;40.74;100743.50;4909337;29;20057;-78